sensor_id;sensor_type;location;lat;lon;timestamp;P1;durP1;ratioP1;P2;durP2;ratioP2
42096;SDS011;27754;45.414;11.084;2023-05-29T00:02:12;12.98;;;8.25;;
42096;SDS011;27754;45.414;11.084;2023-05-29T00:04:39;10.77;;;8.40;;
42096;SDS011;27754;45.414;11.084;2023-05-29T00:07:06;12.40;;;8.90;;
42096;SDS011;27754;45.414;11.084;2023-05-29T00:09:33;12.95;;;7.75;;
42096;SDS011;27754;45.414;11.084;2023-05-29T00:12:00;11.93;;;9.05;;
42096;SDS011;27754;45.414;11.084;2023-05-29T00:14:28;12.85;;;8.13;;
42096;SDS011;27754;45.414;11.084;2023-05-29T00:16:55;11.15;;;8.23;;
42096;SDS011;27754;45.414;11.084;2023-05-29T00:19:23;13.27;;;8.88;;
42096;SDS011;27754;45.414;11.084;2023-05-29T00:21:51;12.38;;;8.77;;
42096;SDS011;27754;45.414;11.084;2023-05-29T00:24:18;11.40;;;8.07;;
42096;SDS011;27754;45.414;11.084;2023-05-29T00:26:46;13.20;;;9.18;;
42096;SDS011;27754;45.414;11.084;2023-05-29T00:29:13;14.15;;;9.13;;
42096;SDS011;27754;45.414;11.084;2023-05-29T00:31:40;12.95;;;9.43;;
42096;SDS011;27754;45.414;11.084;2023-05-29T00:34:07;14.60;;;9.63;;
42096;SDS011;27754;45.414;11.084;2023-05-29T00:36:34;15.57;;;8.43;;
42096;SDS011;27754;45.414;11.084;2023-05-29T00:39:03;17.15;;;9.70;;
42096;SDS011;27754;45.414;11.084;2023-05-29T00:41:30;10.90;;;7.82;;
42096;SDS011;27754;45.414;11.084;2023-05-29T00:43:57;12.85;;;7.40;;
42096;SDS011;27754;45.414;11.084;2023-05-29T00:46:24;12.93;;;7.80;;
42096;SDS011;27754;45.414;11.084;2023-05-29T00:48:51;10.07;;;7.53;;
42096;SDS011;27754;45.414;11.084;2023-05-29T00:51:19;10.40;;;6.75;;
42096;SDS011;27754;45.414;11.084;2023-05-29T00:53:46;12.00;;;7.90;;
42096;SDS011;27754;45.414;11.084;2023-05-29T00:56:15;10.98;;;7.32;;
42096;SDS011;27754;45.414;11.084;2023-05-29T00:58:43;9.73;;;7.13;;
42096;SDS011;27754;45.414;11.084;2023-05-29T01:01:10;10.82;;;7.55;;
42096;SDS011;27754;45.414;11.084;2023-05-29T01:03:38;10.23;;;7.95;;
42096;SDS011;27754;45.414;11.084;2023-05-29T01:06:06;11.45;;;7.50;;
42096;SDS011;27754;45.414;11.084;2023-05-29T01:08:33;12.10;;;7.38;;
42096;SDS011;27754;45.414;11.084;2023-05-29T01:11:04;11.07;;;7.43;;
42096;SDS011;27754;45.414;11.084;2023-05-29T01:13:47;12.35;;;7.65;;
42096;SDS011;27754;45.414;11.084;2023-05-29T01:16:21;10.05;;;7.78;;
42096;SDS011;27754;45.414;11.084;2023-05-29T01:27:28;12.43;;;8.05;;
42096;SDS011;27754;45.414;11.084;2023-05-29T01:29:58;12.57;;;8.70;;
42096;SDS011;27754;45.414;11.084;2023-05-29T01:32:28;12.00;;;8.25;;
42096;SDS011;27754;45.414;11.084;2023-05-29T01:34:56;9.75;;;7.70;;
42096;SDS011;27754;45.414;11.084;2023-05-29T01:37:23;13.57;;;9.18;;
42096;SDS011;27754;45.414;11.084;2023-05-29T01:39:50;11.48;;;9.27;;
42096;SDS011;27754;45.414;11.084;2023-05-29T01:42:17;12.25;;;8.00;;
42096;SDS011;27754;45.414;11.084;2023-05-29T01:44:44;12.73;;;8.55;;
42096;SDS011;27754;45.414;11.084;2023-05-29T01:47:14;11.25;;;8.32;;
42096;SDS011;27754;45.414;11.084;2023-05-29T01:49:42;11.55;;;7.78;;
42096;SDS011;27754;45.414;11.084;2023-05-29T01:52:10;9.07;;;7.45;;
42096;SDS011;27754;45.414;11.084;2023-05-29T01:54:37;10.35;;;7.65;;
42096;SDS011;27754;45.414;11.084;2023-05-29T01:57:04;15.00;;;8.10;;
42096;SDS011;27754;45.414;11.084;2023-05-29T01:59:33;11.65;;;7.20;;
42096;SDS011;27754;45.414;11.084;2023-05-29T02:02:05;11.50;;;8.13;;
42096;SDS011;27754;45.414;11.084;2023-05-29T02:04:33;9.90;;;7.40;;
42096;SDS011;27754;45.414;11.084;2023-05-29T02:07:00;10.13;;;7.72;;
42096;SDS011;27754;45.414;11.084;2023-05-29T02:09:28;12.30;;;8.18;;
42096;SDS011;27754;45.414;11.084;2023-05-29T02:11:55;10.60;;;8.25;;
42096;SDS011;27754;45.414;11.084;2023-05-29T02:14:22;11.45;;;8.18;;
42096;SDS011;27754;45.414;11.084;2023-05-29T02:16:52;13.57;;;8.50;;
42096;SDS011;27754;45.414;11.084;2023-05-29T02:19:19;14.80;;;8.70;;
42096;SDS011;27754;45.414;11.084;2023-05-29T02:21:46;13.07;;;7.90;;
42096;SDS011;27754;45.414;11.084;2023-05-29T02:24:14;9.95;;;6.35;;
42096;SDS011;27754;45.414;11.084;2023-05-29T02:26:41;8.15;;;5.70;;
42096;SDS011;27754;45.414;11.084;2023-05-29T02:29:08;10.45;;;6.65;;
42096;SDS011;27754;45.414;11.084;2023-05-29T02:31:37;8.75;;;5.57;;
42096;SDS011;27754;45.414;11.084;2023-05-29T02:34:04;11.02;;;6.03;;
42096;SDS011;27754;45.414;11.084;2023-05-29T02:36:31;10.27;;;5.85;;
42096;SDS011;27754;45.414;11.084;2023-05-29T02:38:58;9.93;;;5.82;;
42096;SDS011;27754;45.414;11.084;2023-05-29T02:41:24;9.20;;;6.40;;
42096;SDS011;27754;45.414;11.084;2023-05-29T02:43:52;10.43;;;6.00;;
42096;SDS011;27754;45.414;11.084;2023-05-29T02:46:20;9.15;;;5.32;;
42096;SDS011;27754;45.414;11.084;2023-05-29T02:48:48;12.05;;;6.60;;
42096;SDS011;27754;45.414;11.084;2023-05-29T02:51:15;9.10;;;6.95;;
42096;SDS011;27754;45.414;11.084;2023-05-29T02:53:42;11.18;;;7.22;;
42096;SDS011;27754;45.414;11.084;2023-05-29T02:56:09;10.82;;;6.43;;
42096;SDS011;27754;45.414;11.084;2023-05-29T02:58:36;11.27;;;6.93;;
42096;SDS011;27754;45.414;11.084;2023-05-29T03:01:03;11.13;;;6.60;;
42096;SDS011;27754;45.414;11.084;2023-05-29T03:03:31;10.55;;;6.32;;
42096;SDS011;27754;45.414;11.084;2023-05-29T03:05:58;12.07;;;6.70;;
42096;SDS011;27754;45.414;11.084;2023-05-29T03:08:26;9.75;;;7.07;;
42096;SDS011;27754;45.414;11.084;2023-05-29T03:10:54;9.88;;;6.90;;
42096;SDS011;27754;45.414;11.084;2023-05-29T03:13:22;10.65;;;6.70;;
42096;SDS011;27754;45.414;11.084;2023-05-29T03:16:00;10.32;;;6.63;;
42096;SDS011;27754;45.414;11.084;2023-05-29T03:18:27;9.32;;;7.15;;
42096;SDS011;27754;45.414;11.084;2023-05-29T03:20:54;10.73;;;7.20;;
42096;SDS011;27754;45.414;11.084;2023-05-29T03:23:23;13.32;;;8.45;;
42096;SDS011;27754;45.414;11.084;2023-05-29T03:25:53;12.35;;;8.85;;
42096;SDS011;27754;45.414;11.084;2023-05-29T03:28:20;11.65;;;8.52;;
42096;SDS011;27754;45.414;11.084;2023-05-29T03:30:48;10.65;;;7.82;;
42096;SDS011;27754;45.414;11.084;2023-05-29T03:33:18;13.80;;;8.57;;
42096;SDS011;27754;45.414;11.084;2023-05-29T03:36:08;10.85;;;7.25;;
42096;SDS011;27754;45.414;11.084;2023-05-29T03:38:37;9.88;;;6.78;;
42096;SDS011;27754;45.414;11.084;2023-05-29T03:41:04;11.52;;;7.53;;
42096;SDS011;27754;45.414;11.084;2023-05-29T03:43:32;14.40;;;8.57;;
42096;SDS011;27754;45.414;11.084;2023-05-29T03:45:59;12.38;;;7.40;;
42096;SDS011;27754;45.414;11.084;2023-05-29T03:48:28;11.05;;;8.32;;
42096;SDS011;27754;45.414;11.084;2023-05-29T03:50:56;14.60;;;9.30;;
42096;SDS011;27754;45.414;11.084;2023-05-29T03:53:29;11.55;;;8.68;;
42096;SDS011;27754;45.414;11.084;2023-05-29T03:55:57;12.90;;;9.50;;
42096;SDS011;27754;45.414;11.084;2023-05-29T03:58:24;12.98;;;8.65;;
42096;SDS011;27754;45.414;11.084;2023-05-29T04:00:51;12.85;;;8.90;;
42096;SDS011;27754;45.414;11.084;2023-05-29T04:03:19;11.48;;;8.20;;
42096;SDS011;27754;45.414;11.084;2023-05-29T04:05:47;11.82;;;8.02;;
42096;SDS011;27754;45.414;11.084;2023-05-29T04:08:14;13.32;;;8.15;;
42096;SDS011;27754;45.414;11.084;2023-05-29T04:10:42;12.52;;;8.57;;
42096;SDS011;27754;45.414;11.084;2023-05-29T04:13:10;11.65;;;7.72;;
42096;SDS011;27754;45.414;11.084;2023-05-29T04:15:37;11.52;;;8.25;;
42096;SDS011;27754;45.414;11.084;2023-05-29T04:18:04;11.63;;;8.48;;
42096;SDS011;27754;45.414;11.084;2023-05-29T04:20:32;12.48;;;7.90;;
42096;SDS011;27754;45.414;11.084;2023-05-29T04:22:59;12.27;;;8.90;;
42096;SDS011;27754;45.414;11.084;2023-05-29T04:25:26;12.85;;;7.88;;
42096;SDS011;27754;45.414;11.084;2023-05-29T04:27:54;11.77;;;7.60;;
42096;SDS011;27754;45.414;11.084;2023-05-29T04:30:21;9.35;;;7.70;;
42096;SDS011;27754;45.414;11.084;2023-05-29T04:32:48;9.68;;;7.47;;
42096;SDS011;27754;45.414;11.084;2023-05-29T04:35:15;9.60;;;7.13;;
42096;SDS011;27754;45.414;11.084;2023-05-29T04:37:54;11.98;;;7.57;;
42096;SDS011;27754;45.414;11.084;2023-05-29T04:40:24;11.50;;;7.68;;
42096;SDS011;27754;45.414;11.084;2023-05-29T04:42:51;10.18;;;7.13;;
42096;SDS011;27754;45.414;11.084;2023-05-29T04:45:19;9.77;;;7.60;;
42096;SDS011;27754;45.414;11.084;2023-05-29T04:47:47;11.73;;;8.07;;
42096;SDS011;27754;45.414;11.084;2023-05-29T04:50:16;10.70;;;8.18;;
42096;SDS011;27754;45.414;11.084;2023-05-29T04:52:43;10.32;;;7.60;;
42096;SDS011;27754;45.414;11.084;2023-05-29T04:55:10;11.93;;;7.80;;
42096;SDS011;27754;45.414;11.084;2023-05-29T04:57:38;9.68;;;7.55;;
42096;SDS011;27754;45.414;11.084;2023-05-29T05:00:08;10.35;;;7.45;;
42096;SDS011;27754;45.414;11.084;2023-05-29T05:02:37;9.95;;;7.18;;
42096;SDS011;27754;45.414;11.084;2023-05-29T05:05:05;10.40;;;7.15;;
42096;SDS011;27754;45.414;11.084;2023-05-29T05:07:32;13.68;;;7.38;;
42096;SDS011;27754;45.414;11.084;2023-05-29T05:10:00;12.85;;;7.57;;
42096;SDS011;27754;45.414;11.084;2023-05-29T05:12:31;11.30;;;8.13;;
42096;SDS011;27754;45.414;11.084;2023-05-29T05:14:59;9.50;;;7.60;;
42096;SDS011;27754;45.414;11.084;2023-05-29T05:17:27;13.85;;;8.90;;
42096;SDS011;27754;45.414;11.084;2023-05-29T05:19:54;15.82;;;7.90;;
42096;SDS011;27754;45.414;11.084;2023-05-29T05:22:22;11.57;;;7.40;;
42096;SDS011;27754;45.414;11.084;2023-05-29T05:24:49;13.60;;;7.55;;
42096;SDS011;27754;45.414;11.084;2023-05-29T05:27:18;12.57;;;7.20;;
42096;SDS011;27754;45.414;11.084;2023-05-29T05:29:45;13.32;;;7.45;;
42096;SDS011;27754;45.414;11.084;2023-05-29T05:32:13;10.93;;;7.55;;
42096;SDS011;27754;45.414;11.084;2023-05-29T05:34:40;10.25;;;6.82;;
42096;SDS011;27754;45.414;11.084;2023-05-29T05:37:08;10.43;;;7.25;;
42096;SDS011;27754;45.414;11.084;2023-05-29T05:39:37;11.93;;;8.07;;
42096;SDS011;27754;45.414;11.084;2023-05-29T05:42:04;11.80;;;7.70;;
42096;SDS011;27754;45.414;11.084;2023-05-29T05:44:45;12.52;;;7.60;;
42096;SDS011;27754;45.414;11.084;2023-05-29T05:47:13;13.70;;;6.90;;
42096;SDS011;27754;45.414;11.084;2023-05-29T05:49:41;14.18;;;7.95;;
42096;SDS011;27754;45.414;11.084;2023-05-29T05:52:09;14.48;;;7.75;;
42096;SDS011;27754;45.414;11.084;2023-05-29T05:54:36;12.70;;;7.95;;
42096;SDS011;27754;45.414;11.084;2023-05-29T05:57:03;12.32;;;7.03;;
42096;SDS011;27754;45.414;11.084;2023-05-29T05:59:32;12.60;;;6.63;;
42096;SDS011;27754;45.414;11.084;2023-05-29T06:02:01;11.85;;;7.43;;
42096;SDS011;27754;45.414;11.084;2023-05-29T06:04:32;9.50;;;7.38;;
42096;SDS011;27754;45.414;11.084;2023-05-29T06:06:59;15.50;;;8.00;;
42096;SDS011;27754;45.414;11.084;2023-05-29T06:09:27;12.80;;;7.38;;
42096;SDS011;27754;45.414;11.084;2023-05-29T06:11:55;12.55;;;7.88;;
42096;SDS011;27754;45.414;11.084;2023-05-29T06:14:23;10.70;;;7.18;;
42096;SDS011;27754;45.414;11.084;2023-05-29T06:16:51;12.60;;;7.57;;
42096;SDS011;27754;45.414;11.084;2023-05-29T06:19:20;12.40;;;6.72;;
42096;SDS011;27754;45.414;11.084;2023-05-29T06:21:54;8.60;;;5.35;;
42096;SDS011;27754;45.414;11.084;2023-05-29T06:24:21;13.77;;;5.78;;
42096;SDS011;27754;45.414;11.084;2023-05-29T06:26:49;10.32;;;5.97;;
42096;SDS011;27754;45.414;11.084;2023-05-29T06:29:17;11.05;;;6.43;;
42096;SDS011;27754;45.414;11.084;2023-05-29T06:31:44;10.65;;;6.72;;
42096;SDS011;27754;45.414;11.084;2023-05-29T06:34:12;9.60;;;5.25;;
42096;SDS011;27754;45.414;11.084;2023-05-29T06:36:39;11.27;;;5.60;;
42096;SDS011;27754;45.414;11.084;2023-05-29T06:39:07;8.73;;;5.72;;
42096;SDS011;27754;45.414;11.084;2023-05-29T06:41:35;8.35;;;5.53;;
42096;SDS011;27754;45.414;11.084;2023-05-29T06:44:02;9.80;;;5.82;;
42096;SDS011;27754;45.414;11.084;2023-05-29T06:46:30;10.05;;;5.75;;
42096;SDS011;27754;45.414;11.084;2023-05-29T06:49:00;10.13;;;6.30;;
42096;SDS011;27754;45.414;11.084;2023-05-29T06:51:30;12.23;;;6.18;;
42096;SDS011;27754;45.414;11.084;2023-05-29T06:54:05;8.95;;;5.95;;
42096;SDS011;27754;45.414;11.084;2023-05-29T06:56:32;8.18;;;5.28;;
42096;SDS011;27754;45.414;11.084;2023-05-29T06:58:59;8.18;;;5.60;;
42096;SDS011;27754;45.414;11.084;2023-05-29T07:01:29;9.38;;;5.50;;
42096;SDS011;27754;45.414;11.084;2023-05-29T07:04:03;11.65;;;5.53;;
42096;SDS011;27754;45.414;11.084;2023-05-29T07:06:31;9.73;;;5.50;;
42096;SDS011;27754;45.414;11.084;2023-05-29T07:08:59;8.82;;;5.80;;
42096;SDS011;27754;45.414;11.084;2023-05-29T07:11:27;12.38;;;5.10;;
42096;SDS011;27754;45.414;11.084;2023-05-29T07:13:54;12.70;;;6.05;;
42096;SDS011;27754;45.414;11.084;2023-05-29T07:16:24;7.97;;;5.80;;
42096;SDS011;27754;45.414;11.084;2023-05-29T07:18:57;8.93;;;5.68;;
42096;SDS011;27754;45.414;11.084;2023-05-29T07:21:25;9.73;;;5.70;;
42096;SDS011;27754;45.414;11.084;2023-05-29T07:23:53;10.80;;;5.53;;
42096;SDS011;27754;45.414;11.084;2023-05-29T07:26:20;9.63;;;6.05;;
42096;SDS011;27754;45.414;11.084;2023-05-29T07:28:49;13.18;;;5.60;;
42096;SDS011;27754;45.414;11.084;2023-05-29T07:31:17;9.57;;;5.82;;
42096;SDS011;27754;45.414;11.084;2023-05-29T07:33:46;9.30;;;5.30;;
42096;SDS011;27754;45.414;11.084;2023-05-29T07:36:14;10.57;;;5.95;;
42096;SDS011;27754;45.414;11.084;2023-05-29T07:38:44;8.90;;;5.85;;
42096;SDS011;27754;45.414;11.084;2023-05-29T07:41:15;9.27;;;5.05;;
42096;SDS011;27754;45.414;11.084;2023-05-29T07:43:50;10.68;;;5.80;;
42096;SDS011;27754;45.414;11.084;2023-05-29T07:46:19;8.43;;;5.30;;
42096;SDS011;27754;45.414;11.084;2023-05-29T07:48:49;10.38;;;5.75;;
42096;SDS011;27754;45.414;11.084;2023-05-29T07:51:17;8.45;;;5.03;;
42096;SDS011;27754;45.414;11.084;2023-05-29T07:53:46;10.65;;;5.15;;
42096;SDS011;27754;45.414;11.084;2023-05-29T07:56:14;10.23;;;5.28;;
42096;SDS011;27754;45.414;11.084;2023-05-29T07:58:43;9.30;;;5.47;;
42096;SDS011;27754;45.414;11.084;2023-05-29T08:01:10;7.82;;;4.78;;
42096;SDS011;27754;45.414;11.084;2023-05-29T08:03:37;8.38;;;5.05;;
42096;SDS011;27754;45.414;11.084;2023-05-29T08:06:20;7.05;;;4.85;;
42096;SDS011;27754;45.414;11.084;2023-05-29T08:08:47;8.65;;;6.13;;
42096;SDS011;27754;45.414;11.084;2023-05-29T08:11:15;9.07;;;5.47;;
42096;SDS011;27754;45.414;11.084;2023-05-29T08:13:42;13.45;;;4.95;;
42096;SDS011;27754;45.414;11.084;2023-05-29T08:16:09;6.68;;;4.90;;
42096;SDS011;27754;45.414;11.084;2023-05-29T08:18:36;8.40;;;5.30;;
42096;SDS011;27754;45.414;11.084;2023-05-29T08:21:04;9.23;;;4.85;;
42096;SDS011;27754;45.414;11.084;2023-05-29T08:23:32;8.50;;;5.30;;
42096;SDS011;27754;45.414;11.084;2023-05-29T08:26:01;9.73;;;5.07;;
42096;SDS011;27754;45.414;11.084;2023-05-29T08:28:31;9.50;;;5.32;;
42096;SDS011;27754;45.414;11.084;2023-05-29T08:30:58;11.75;;;5.95;;
42096;SDS011;27754;45.414;11.084;2023-05-29T08:33:25;8.63;;;5.60;;
42096;SDS011;27754;45.414;11.084;2023-05-29T08:35:52;8.45;;;4.60;;
42096;SDS011;27754;45.414;11.084;2023-05-29T08:38:19;10.38;;;4.85;;
42096;SDS011;27754;45.414;11.084;2023-05-29T08:40:47;13.65;;;5.70;;
42096;SDS011;27754;45.414;11.084;2023-05-29T08:43:16;7.90;;;5.10;;
42096;SDS011;27754;45.414;11.084;2023-05-29T08:45:53;8.50;;;5.28;;
42096;SDS011;27754;45.414;11.084;2023-05-29T08:48:22;9.52;;;5.07;;
42096;SDS011;27754;45.414;11.084;2023-05-29T08:50:53;10.23;;;5.10;;
42096;SDS011;27754;45.414;11.084;2023-05-29T08:53:22;16.75;;;5.03;;
42096;SDS011;27754;45.414;11.084;2023-05-29T08:55:51;10.10;;;5.10;;
42096;SDS011;27754;45.414;11.084;2023-05-29T08:58:19;9.18;;;4.88;;
42096;SDS011;27754;45.414;11.084;2023-05-29T09:00:50;9.98;;;4.85;;
42096;SDS011;27754;45.414;11.084;2023-05-29T09:03:18;7.75;;;4.60;;
42096;SDS011;27754;45.414;11.084;2023-05-29T09:05:47;7.03;;;4.65;;
42096;SDS011;27754;45.414;11.084;2023-05-29T09:08:15;8.73;;;5.05;;
42096;SDS011;27754;45.414;11.084;2023-05-29T09:10:44;10.65;;;5.03;;
42096;SDS011;27754;45.414;11.084;2023-05-29T09:13:12;6.85;;;4.80;;
42096;SDS011;27754;45.414;11.084;2023-05-29T09:15:40;7.85;;;4.35;;
42096;SDS011;27754;45.414;11.084;2023-05-29T09:18:10;9.10;;;5.05;;
42096;SDS011;27754;45.414;11.084;2023-05-29T09:20:38;10.20;;;5.25;;
42096;SDS011;27754;45.414;11.084;2023-05-29T09:23:06;9.10;;;5.40;;
42096;SDS011;27754;45.414;11.084;2023-05-29T09:25:36;9.98;;;5.07;;
42096;SDS011;27754;45.414;11.084;2023-05-29T09:28:09;7.80;;;4.88;;
42096;SDS011;27754;45.414;11.084;2023-05-29T09:33:10;12.18;;;5.50;;
42096;SDS011;27754;45.414;11.084;2023-05-29T09:35:45;11.50;;;4.97;;
42096;SDS011;27754;45.414;11.084;2023-05-29T09:38:17;12.00;;;5.22;;
42096;SDS011;27754;45.414;11.084;2023-05-29T09:41:04;7.97;;;4.82;;
42096;SDS011;27754;45.414;11.084;2023-05-29T09:43:32;8.23;;;5.32;;
42096;SDS011;27754;45.414;11.084;2023-05-29T09:46:00;7.90;;;5.05;;
42096;SDS011;27754;45.414;11.084;2023-05-29T09:48:29;7.93;;;4.68;;
42096;SDS011;27754;45.414;11.084;2023-05-29T09:50:56;9.05;;;5.53;;
42096;SDS011;27754;45.414;11.084;2023-05-29T09:53:25;12.27;;;5.40;;
42096;SDS011;27754;45.414;11.084;2023-05-29T09:55:55;20.63;;;5.50;;
42096;SDS011;27754;45.414;11.084;2023-05-29T09:58:24;9.27;;;4.95;;
42096;SDS011;27754;45.414;11.084;2023-05-29T10:00:52;8.45;;;4.95;;
42096;SDS011;27754;45.414;11.084;2023-05-29T10:03:20;9.70;;;5.70;;
42096;SDS011;27754;45.414;11.084;2023-05-29T10:05:53;9.32;;;5.43;;
42096;SDS011;27754;45.414;11.084;2023-05-29T10:08:25;7.68;;;5.05;;
42096;SDS011;27754;45.414;11.084;2023-05-29T10:11:00;8.93;;;5.20;;
42096;SDS011;27754;45.414;11.084;2023-05-29T10:13:31;9.57;;;4.95;;
42096;SDS011;27754;45.414;11.084;2023-05-29T10:16:03;7.55;;;4.50;;
42096;SDS011;27754;45.414;11.084;2023-05-29T10:18:35;11.32;;;5.47;;
42096;SDS011;27754;45.414;11.084;2023-05-29T10:21:05;8.43;;;5.20;;
42096;SDS011;27754;45.414;11.084;2023-05-29T10:23:37;7.78;;;5.03;;
42096;SDS011;27754;45.414;11.084;2023-05-29T10:26:10;9.43;;;5.15;;
42096;SDS011;27754;45.414;11.084;2023-05-29T10:28:44;7.65;;;5.40;;
42096;SDS011;27754;45.414;11.084;2023-05-29T10:31:22;9.05;;;5.22;;
42096;SDS011;27754;45.414;11.084;2023-05-29T10:36:36;7.85;;;5.47;;
42096;SDS011;27754;45.414;11.084;2023-05-29T10:39:13;9.35;;;5.30;;
42096;SDS011;27754;45.414;11.084;2023-05-29T10:41:40;9.30;;;5.68;;
42096;SDS011;27754;45.414;11.084;2023-05-29T10:47:04;8.27;;;5.30;;
42096;SDS011;27754;45.414;11.084;2023-05-29T10:49:31;8.20;;;5.20;;
42096;SDS011;27754;45.414;11.084;2023-05-29T10:51:58;8.93;;;4.95;;
42096;SDS011;27754;45.414;11.084;2023-05-29T10:54:28;8.82;;;5.63;;
42096;SDS011;27754;45.414;11.084;2023-05-29T10:57:07;9.90;;;5.95;;
42096;SDS011;27754;45.414;11.084;2023-05-29T10:59:37;10.15;;;5.10;;
42096;SDS011;27754;45.414;11.084;2023-05-29T11:02:04;10.05;;;5.50;;
42096;SDS011;27754;45.414;11.084;2023-05-29T11:22:53;8.18;;;5.40;;
42096;SDS011;27754;45.414;11.084;2023-05-29T11:25:28;10.27;;;5.82;;
42096;SDS011;27754;45.414;11.084;2023-05-29T11:27:55;10.32;;;5.72;;
42096;SDS011;27754;45.414;11.084;2023-05-29T11:30:22;10.02;;;5.55;;
42096;SDS011;27754;45.414;11.084;2023-05-29T11:32:49;8.52;;;5.43;;
42096;SDS011;27754;45.414;11.084;2023-05-29T11:35:19;10.15;;;5.55;;
42096;SDS011;27754;45.414;11.084;2023-05-29T11:37:48;7.47;;;5.18;;
42096;SDS011;27754;45.414;11.084;2023-05-29T11:40:16;7.47;;;5.20;;
42096;SDS011;27754;45.414;11.084;2023-05-29T11:42:45;10.00;;;5.28;;
42096;SDS011;27754;45.414;11.084;2023-05-29T11:45:13;8.77;;;5.03;;
42096;SDS011;27754;45.414;11.084;2023-05-29T11:58:44;10.77;;;4.97;;
42096;SDS011;27754;45.414;11.084;2023-05-29T12:01:11;7.25;;;5.18;;
42096;SDS011;27754;45.414;11.084;2023-05-29T12:03:43;10.63;;;5.10;;
42096;SDS011;27754;45.414;11.084;2023-05-29T12:06:10;6.40;;;4.75;;
42096;SDS011;27754;45.414;11.084;2023-05-29T12:08:38;8.63;;;5.15;;
42096;SDS011;27754;45.414;11.084;2023-05-29T12:11:05;8.70;;;5.20;;
42096;SDS011;27754;45.414;11.084;2023-05-29T12:13:33;8.80;;;5.32;;
42096;SDS011;27754;45.414;11.084;2023-05-29T12:16:01;10.57;;;5.30;;
42096;SDS011;27754;45.414;11.084;2023-05-29T12:18:30;9.45;;;5.20;;
42096;SDS011;27754;45.414;11.084;2023-05-29T12:21:00;9.70;;;5.30;;
42096;SDS011;27754;45.414;11.084;2023-05-29T12:23:28;9.90;;;5.13;;
42096;SDS011;27754;45.414;11.084;2023-05-29T12:25:56;7.65;;;4.47;;
42096;SDS011;27754;45.414;11.084;2023-05-29T12:28:25;10.02;;;5.20;;
42096;SDS011;27754;45.414;11.084;2023-05-29T12:30:57;9.88;;;5.20;;
42096;SDS011;27754;45.414;11.084;2023-05-29T12:33:28;9.77;;;5.13;;
42096;SDS011;27754;45.414;11.084;2023-05-29T12:36:06;6.43;;;4.55;;
42096;SDS011;27754;45.414;11.084;2023-05-29T12:38:45;7.20;;;4.38;;
42096;SDS011;27754;45.414;11.084;2023-05-29T12:41:23;6.85;;;5.00;;
42096;SDS011;27754;45.414;11.084;2023-05-29T12:44:01;8.68;;;5.10;;
42096;SDS011;27754;45.414;11.084;2023-05-29T12:46:35;11.88;;;5.32;;
42096;SDS011;27754;45.414;11.084;2023-05-29T12:49:17;8.60;;;4.70;;
42096;SDS011;27754;45.414;11.084;2023-05-29T12:51:49;10.07;;;4.40;;
42096;SDS011;27754;45.414;11.084;2023-05-29T12:54:18;10.90;;;5.20;;
42096;SDS011;27754;45.414;11.084;2023-05-29T12:56:45;8.65;;;4.25;;
42096;SDS011;27754;45.414;11.084;2023-05-29T12:59:12;8.48;;;4.93;;
42096;SDS011;27754;45.414;11.084;2023-05-29T13:01:40;9.40;;;5.03;;
42096;SDS011;27754;45.414;11.084;2023-05-29T13:04:07;7.07;;;4.40;;
42096;SDS011;27754;45.414;11.084;2023-05-29T13:06:34;9.13;;;4.10;;
42096;SDS011;27754;45.414;11.084;2023-05-29T13:09:03;7.93;;;5.13;;
42096;SDS011;27754;45.414;11.084;2023-05-29T13:11:31;8.52;;;4.55;;
42096;SDS011;27754;45.414;11.084;2023-05-29T13:13:58;8.15;;;4.47;;
42096;SDS011;27754;45.414;11.084;2023-05-29T13:16:25;9.00;;;4.97;;
42096;SDS011;27754;45.414;11.084;2023-05-29T13:18:52;9.40;;;5.13;;
42096;SDS011;27754;45.414;11.084;2023-05-29T13:21:19;8.45;;;4.53;;
42096;SDS011;27754;45.414;11.084;2023-05-29T13:23:46;7.72;;;4.40;;
42096;SDS011;27754;45.414;11.084;2023-05-29T13:26:13;7.22;;;4.40;;
42096;SDS011;27754;45.414;11.084;2023-05-29T13:28:40;9.10;;;4.45;;
42096;SDS011;27754;45.414;11.084;2023-05-29T13:31:07;8.10;;;4.40;;
42096;SDS011;27754;45.414;11.084;2023-05-29T13:33:33;10.35;;;5.10;;
42096;SDS011;27754;45.414;11.084;2023-05-29T13:36:00;9.63;;;5.13;;
42096;SDS011;27754;45.414;11.084;2023-05-29T13:38:28;7.05;;;4.55;;
42096;SDS011;27754;45.414;11.084;2023-05-29T13:40:55;18.92;;;6.15;;
42096;SDS011;27754;45.414;11.084;2023-05-29T13:43:22;11.25;;;5.30;;
42096;SDS011;27754;45.414;11.084;2023-05-29T13:46:05;13.57;;;4.68;;
42096;SDS011;27754;45.414;11.084;2023-05-29T13:48:32;7.68;;;4.88;;
42096;SDS011;27754;45.414;11.084;2023-05-29T13:51:00;7.93;;;5.07;;
42096;SDS011;27754;45.414;11.084;2023-05-29T13:53:27;9.07;;;4.68;;
42096;SDS011;27754;45.414;11.084;2023-05-29T13:55:54;11.68;;;5.20;;
42096;SDS011;27754;45.414;11.084;2023-05-29T13:58:21;9.55;;;4.60;;
42096;SDS011;27754;45.414;11.084;2023-05-29T14:00:48;7.15;;;4.53;;
42096;SDS011;27754;45.414;11.084;2023-05-29T14:03:15;9.18;;;5.20;;
42096;SDS011;27754;45.414;11.084;2023-05-29T14:05:42;8.80;;;5.15;;
42096;SDS011;27754;45.414;11.084;2023-05-29T14:08:09;8.93;;;5.70;;
42096;SDS011;27754;45.414;11.084;2023-05-29T14:10:36;13.10;;;6.38;;
42096;SDS011;27754;45.414;11.084;2023-05-29T14:13:03;8.25;;;5.68;;
42096;SDS011;27754;45.414;11.084;2023-05-29T14:15:30;8.02;;;5.25;;
42096;SDS011;27754;45.414;11.084;2023-05-29T14:17:57;7.78;;;5.10;;
42096;SDS011;27754;45.414;11.084;2023-05-29T14:20:24;7.75;;;5.65;;
42096;SDS011;27754;45.414;11.084;2023-05-29T14:22:51;9.52;;;5.72;;
42096;SDS011;27754;45.414;11.084;2023-05-29T14:25:18;7.05;;;5.28;;
42096;SDS011;27754;45.414;11.084;2023-05-29T14:27:45;10.65;;;5.60;;
42096;SDS011;27754;45.414;11.084;2023-05-29T14:30:12;9.85;;;5.10;;
42096;SDS011;27754;45.414;11.084;2023-05-29T14:32:39;7.50;;;5.00;;
42096;SDS011;27754;45.414;11.084;2023-05-29T14:35:08;7.45;;;4.75;;
42096;SDS011;27754;45.414;11.084;2023-05-29T14:37:35;11.57;;;5.30;;
42096;SDS011;27754;45.414;11.084;2023-05-29T14:40:02;9.77;;;5.47;;
42096;SDS011;27754;45.414;11.084;2023-05-29T14:42:29;6.97;;;4.97;;
42096;SDS011;27754;45.414;11.084;2023-05-29T14:44:56;8.85;;;5.05;;
42096;SDS011;27754;45.414;11.084;2023-05-29T14:47:23;8.98;;;5.43;;
42096;SDS011;27754;45.414;11.084;2023-05-29T14:49:50;7.18;;;5.03;;
42096;SDS011;27754;45.414;11.084;2023-05-29T14:52:17;8.73;;;5.03;;
42096;SDS011;27754;45.414;11.084;2023-05-29T14:54:44;8.82;;;4.95;;
42096;SDS011;27754;45.414;11.084;2023-05-29T14:57:11;8.25;;;5.50;;
42096;SDS011;27754;45.414;11.084;2023-05-29T14:59:38;7.20;;;4.72;;
42096;SDS011;27754;45.414;11.084;2023-05-29T15:02:05;7.15;;;4.20;;
42096;SDS011;27754;45.414;11.084;2023-05-29T15:04:32;8.63;;;5.22;;
42096;SDS011;27754;45.414;11.084;2023-05-29T15:06:59;9.55;;;5.35;;
42096;SDS011;27754;45.414;11.084;2023-05-29T15:09:32;8.25;;;5.25;;
42096;SDS011;27754;45.414;11.084;2023-05-29T15:11:59;8.68;;;4.78;;
42096;SDS011;27754;45.414;11.084;2023-05-29T15:14:27;11.13;;;5.10;;
42096;SDS011;27754;45.414;11.084;2023-05-29T15:16:54;9.07;;;4.97;;
42096;SDS011;27754;45.414;11.084;2023-05-29T15:19:22;8.30;;;4.95;;
42096;SDS011;27754;45.414;11.084;2023-05-29T15:21:49;9.95;;;4.80;;
42096;SDS011;27754;45.414;11.084;2023-05-29T15:24:16;9.98;;;5.07;;